createdAt,value
2018-09-14T00:00:29.346Z,0.00
2018-09-14T00:01:29.339Z,0.00
2018-09-14T00:02:29.339Z,0.00
2018-09-14T00:03:29.333Z,0.00
2018-09-14T00:04:29.331Z,0.00
2018-09-14T00:05:29.328Z,0.00
2018-09-14T00:06:29.329Z,0.00
2018-09-14T00:07:29.326Z,0.00
2018-09-14T00:08:29.321Z,0.00
2018-09-14T00:09:29.321Z,0.00
2018-09-14T00:10:29.319Z,0.00
2018-09-14T00:11:29.315Z,0.00
2018-09-14T00:12:29.314Z,0.00
2018-09-14T00:13:29.310Z,0.00
2018-09-14T00:14:29.310Z,0.00
2018-09-14T00:15:29.306Z,0.00
2018-09-14T00:16:29.308Z,0.00
2018-09-14T00:17:29.302Z,0.00
2018-09-14T00:18:29.302Z,0.00
2018-09-14T00:19:29.300Z,0.00
2018-09-14T00:20:29.297Z,0.00
2018-09-14T00:21:29.298Z,0.00
2018-09-14T00:22:29.294Z,0.00
2018-09-14T00:23:29.292Z,0.00
2018-09-14T00:24:29.292Z,0.00
2018-09-14T00:25:29.287Z,0.00
2018-09-14T00:26:29.281Z,0.00
2018-09-14T00:27:29.284Z,0.00
2018-09-14T00:28:29.281Z,0.00
2018-09-14T00:29:29.279Z,0.00
2018-09-14T00:30:29.280Z,0.00
2018-09-14T00:31:29.278Z,0.00
2018-09-14T00:32:29.271Z,0.00
2018-09-14T00:33:29.270Z,0.00
2018-09-14T00:34:29.269Z,0.00
2018-09-14T00:35:29.265Z,0.00
2018-09-14T00:36:29.266Z,0.00
2018-09-14T00:37:29.261Z,0.00
2018-09-14T00:38:29.263Z,0.00
2018-09-14T00:39:29.259Z,0.00
2018-09-14T00:40:29.259Z,0.00
2018-09-14T00:41:29.256Z,0.00
2018-09-14T00:42:29.253Z,0.00
2018-09-14T00:43:29.250Z,0.00
2018-09-14T00:44:29.248Z,0.00
2018-09-14T00:45:29.245Z,0.00
2018-09-14T00:46:29.248Z,0.00
2018-09-14T00:47:29.241Z,0.00
2018-09-14T00:48:29.239Z,0.00
2018-09-14T00:49:29.242Z,0.00
2018-09-14T00:50:29.236Z,0.00
2018-09-14T00:51:29.235Z,0.00
2018-09-14T00:52:29.234Z,0.00
2018-09-14T00:53:29.232Z,0.00
2018-09-14T00:54:29.229Z,0.00
2018-09-14T00:55:29.228Z,0.00
2018-09-14T00:56:29.230Z,0.00
2018-09-14T00:57:29.224Z,0.00
2018-09-14T00:58:29.222Z,0.00
2018-09-14T00:59:29.220Z,0.00
2018-09-14T01:00:29.217Z,0.00
2018-09-14T01:01:29.216Z,0.00
2018-09-14T01:02:29.217Z,0.00
2018-09-14T01:03:29.212Z,0.00
2018-09-14T01:04:29.209Z,0.00
2018-09-14T01:05:29.206Z,0.00
2018-09-14T01:06:29.206Z,0.00
2018-09-14T01:07:29.202Z,0.00
2018-09-14T01:08:29.199Z,0.00
2018-09-14T01:09:29.200Z,0.00
2018-09-14T01:10:29.198Z,0.00
2018-09-14T01:11:29.198Z,0.00
2018-09-14T01:12:29.189Z,0.00
2018-09-14T01:13:29.192Z,0.00
2018-09-14T01:14:29.192Z,0.00
2018-09-14T01:15:29.186Z,0.00
2018-09-14T01:16:29.189Z,0.00
2018-09-14T01:17:29.185Z,0.00
2018-09-14T01:18:29.179Z,0.00
2018-09-14T01:19:29.182Z,0.00
2018-09-14T01:20:29.180Z,0.00
2018-09-14T01:21:29.174Z,0.00
2018-09-14T01:22:29.172Z,0.00
2018-09-14T01:23:29.173Z,0.00
2018-09-14T01:24:29.167Z,0.00
2018-09-14T01:25:29.162Z,0.00
2018-09-14T01:26:29.164Z,0.00
2018-09-14T01:27:29.163Z,0.00
2018-09-14T01:28:29.158Z,0.00
2018-09-14T01:29:29.157Z,0.00
2018-09-14T01:30:29.153Z,0.00
2018-09-14T01:31:29.862Z,0.00
2018-09-14T01:32:29.155Z,0.00
2018-09-14T01:33:29.147Z,0.00
2018-09-14T01:34:29.145Z,0.00
2018-09-14T01:35:29.143Z,0.00
2018-09-14T01:36:29.142Z,0.00
2018-09-14T01:37:29.140Z,0.00
2018-09-14T01:38:29.138Z,0.00
2018-09-14T01:39:29.134Z,0.00
2018-09-14T01:40:29.131Z,0.00
2018-09-14T01:41:29.129Z,0.00
2018-09-14T01:42:29.126Z,0.00
2018-09-14T01:43:29.124Z,0.00
2018-09-14T01:44:29.123Z,0.00
2018-09-14T01:45:29.123Z,0.00
2018-09-14T01:46:29.119Z,0.00
2018-09-14T01:47:29.116Z,0.00
2018-09-14T01:48:29.114Z,0.00
2018-09-14T01:49:29.110Z,0.00
2018-09-14T01:50:29.110Z,0.00
2018-09-14T01:51:29.106Z,0.00
2018-09-14T01:52:29.104Z,0.00
2018-09-14T01:53:29.102Z,0.00
2018-09-14T01:54:29.101Z,0.00
2018-09-14T01:55:29.098Z,0.00
2018-09-14T01:56:29.097Z,0.00
2018-09-14T01:57:29.094Z,0.00
2018-09-14T01:58:29.092Z,0.00
2018-09-14T01:59:29.089Z,0.00
2018-09-14T02:00:29.088Z,0.00
2018-09-14T02:01:29.086Z,0.00
2018-09-14T02:02:29.082Z,0.00
2018-09-14T02:03:29.116Z,0.00
2018-09-14T02:04:29.080Z,0.00
2018-09-14T02:05:29.078Z,0.00
2018-09-14T02:06:29.080Z,0.00
2018-09-14T02:07:29.072Z,0.00
2018-09-14T02:08:29.070Z,0.00
2018-09-14T02:09:29.068Z,0.00
2018-09-14T02:10:29.066Z,0.00
2018-09-14T02:11:29.061Z,0.00
2018-09-14T02:12:29.063Z,0.00
2018-09-14T02:13:29.060Z,0.00
2018-09-14T02:14:29.056Z,0.00
2018-09-14T02:15:29.056Z,0.00
2018-09-14T02:16:29.055Z,0.00
2018-09-14T02:17:29.052Z,0.00
2018-09-14T02:18:29.051Z,0.00
2018-09-14T02:19:29.048Z,0.00
2018-09-14T02:20:29.045Z,0.00
2018-09-14T02:21:29.045Z,0.00
2018-09-14T02:22:29.040Z,0.00
2018-09-14T02:23:29.038Z,0.00
2018-09-14T02:24:29.038Z,0.00
2018-09-14T02:25:29.065Z,0.00
2018-09-14T02:26:29.032Z,0.00
2018-09-14T02:27:29.034Z,0.00
2018-09-14T02:28:29.030Z,0.00
2018-09-14T02:29:29.031Z,0.00
2018-09-14T02:30:29.024Z,0.00
2018-09-14T02:31:29.020Z,0.00
2018-09-14T02:32:29.019Z,0.00
2018-09-14T02:33:29.022Z,0.00
2018-09-14T02:34:29.016Z,0.00
2018-09-14T02:35:29.010Z,0.00
2018-09-14T02:36:29.010Z,0.00
2018-09-14T02:37:29.012Z,0.00
2018-09-14T02:38:29.013Z,0.00
2018-09-14T02:39:29.008Z,0.00
2018-09-14T02:40:29.000Z,0.00
2018-09-14T02:41:28.999Z,0.00
2018-09-14T02:42:28.999Z,0.00
2018-09-14T02:43:28.993Z,0.00
2018-09-14T02:44:28.997Z,0.00
2018-09-14T02:45:28.990Z,0.00
2018-09-14T02:46:28.992Z,0.00
2018-09-14T02:47:29.001Z,0.00
2018-09-14T02:48:28.983Z,0.00
2018-09-14T02:49:28.979Z,0.00
2018-09-14T02:50:28.978Z,0.00
2018-09-14T02:51:28.974Z,0.00
2018-09-14T02:52:28.975Z,0.00
2018-09-14T02:53:28.966Z,0.00
2018-09-14T02:54:28.968Z,0.00
2018-09-14T02:55:28.970Z,0.00
2018-09-14T02:56:28.964Z,0.00
2018-09-14T02:57:28.964Z,0.00
2018-09-14T02:58:28.961Z,0.00
2018-09-14T02:59:28.956Z,0.00
2018-09-14T03:00:28.958Z,0.00
2018-09-14T03:01:28.954Z,0.00
2018-09-14T03:02:28.952Z,0.00
2018-09-14T03:03:28.950Z,0.00
2018-09-14T03:04:28.950Z,0.00
2018-09-14T03:05:28.945Z,0.00
2018-09-14T03:06:28.948Z,0.00
2018-09-14T03:07:28.940Z,0.00
2018-09-14T03:08:28.936Z,0.00
2018-09-14T03:09:28.937Z,0.00
2018-09-14T03:10:28.935Z,0.00
2018-09-14T03:11:28.932Z,0.00
2018-09-14T03:12:28.933Z,0.00
2018-09-14T03:13:28.937Z,0.00
2018-09-14T03:14:28.926Z,0.00
2018-09-14T03:15:28.928Z,0.00
2018-09-14T03:16:28.920Z,0.00
2018-09-14T03:17:28.922Z,0.00
2018-09-14T03:18:28.921Z,0.00
2018-09-14T03:19:28.915Z,0.00
2018-09-14T03:20:28.913Z,0.00
2018-09-14T03:21:28.912Z,0.00
2018-09-14T03:22:28.910Z,0.00
2018-09-14T03:23:28.911Z,0.00
2018-09-14T03:24:28.909Z,0.00
2018-09-14T03:25:28.905Z,0.00
2018-09-14T03:26:28.903Z,0.00
2018-09-14T03:27:28.897Z,0.00
2018-09-14T03:28:28.896Z,0.00
2018-09-14T03:29:28.891Z,0.00
2018-09-14T03:30:28.893Z,0.00
2018-09-14T03:31:28.891Z,0.00
2018-09-14T03:32:28.892Z,0.00
2018-09-14T03:33:28.894Z,0.00
2018-09-14T03:34:28.884Z,0.00
2018-09-14T03:35:28.881Z,0.00
2018-09-14T03:36:28.884Z,0.00
2018-09-14T03:37:28.878Z,0.00
2018-09-14T03:38:28.877Z,0.00
2018-09-14T03:39:28.873Z,0.00
2018-09-14T03:40:28.869Z,0.00
2018-09-14T03:41:28.869Z,0.00
2018-09-14T03:42:28.869Z,0.00
2018-09-14T03:43:28.863Z,0.00
2018-09-14T03:44:28.864Z,0.00
2018-09-14T03:45:28.863Z,0.00
2018-09-14T03:46:28.862Z,0.00
2018-09-14T03:47:28.871Z,0.00
2018-09-14T03:48:28.856Z,0.00
2018-09-14T03:49:28.854Z,0.00
2018-09-14T03:50:28.855Z,0.00
2018-09-14T03:51:28.849Z,0.00
2018-09-14T03:52:28.853Z,0.00
2018-09-14T03:53:28.849Z,0.00
2018-09-14T03:54:28.844Z,0.00
2018-09-14T03:55:28.842Z,0.00
2018-09-14T03:56:28.865Z,0.00
2018-09-14T03:57:28.840Z,0.00
2018-09-14T03:58:28.836Z,0.00
2018-09-14T03:59:28.833Z,0.00
2018-09-14T04:00:28.830Z,0.00
2018-09-14T04:01:28.828Z,0.00
2018-09-14T04:02:28.832Z,0.00
2018-09-14T04:03:28.826Z,0.00
2018-09-14T04:04:28.830Z,0.00
2018-09-14T04:05:28.822Z,0.00
2018-09-14T04:06:28.884Z,0.00
2018-09-14T04:07:28.817Z,0.00
2018-09-14T04:08:28.817Z,0.00
2018-09-14T04:09:28.814Z,0.00
2018-09-14T04:10:28.815Z,0.00
2018-09-14T04:11:28.808Z,0.00
2018-09-14T04:12:28.810Z,4.00
2018-09-14T04:13:28.806Z,4.00
2018-09-14T04:14:28.805Z,0.00
2018-09-14T04:15:28.799Z,4.00
2018-09-14T04:16:28.799Z,4.00
2018-09-14T04:17:28.798Z,4.00
2018-09-14T04:18:28.797Z,4.00
2018-09-14T04:19:28.796Z,8.00
2018-09-14T04:20:28.791Z,8.00
2018-09-14T04:21:28.791Z,12.00
2018-09-14T04:22:28.787Z,12.00
2018-09-14T04:23:28.822Z,16.00
2018-09-14T04:24:28.784Z,16.00
2018-09-14T04:25:28.782Z,20.00
2018-09-14T04:26:28.783Z,24.00
2018-09-14T04:27:28.774Z,24.00
2018-09-14T04:28:28.775Z,28.00
2018-09-14T04:29:28.773Z,36.00
2018-09-14T04:30:28.770Z,40.00
2018-09-14T04:31:28.769Z,40.00
2018-09-14T04:32:28.766Z,44.00
2018-09-14T04:33:28.765Z,52.00
2018-09-14T04:34:28.764Z,52.00
2018-09-14T04:35:28.762Z,60.00
2018-09-14T04:36:28.759Z,68.00
2018-09-14T04:37:28.758Z,72.00
2018-09-14T04:38:28.802Z,80.00
2018-09-14T04:39:28.751Z,88.00
2018-09-14T04:40:28.751Z,96.00
2018-09-14T04:41:28.749Z,108.00
2018-09-14T04:42:28.747Z,112.00
2018-09-14T04:43:28.746Z,128.00
2018-09-14T04:44:28.743Z,136.00
2018-09-14T04:45:28.742Z,148.00
2018-09-14T04:46:28.742Z,160.00
2018-09-14T04:47:28.738Z,172.00
2018-09-14T04:48:28.741Z,184.00
2018-09-14T04:49:28.735Z,204.00
2018-09-14T04:50:28.732Z,220.00
2018-09-14T04:51:28.915Z,236.00
2018-09-14T04:52:28.729Z,248.00
2018-09-14T04:53:28.730Z,268.00
2018-09-14T04:54:28.723Z,284.00
2018-09-14T04:55:28.725Z,304.00
2018-09-14T04:56:28.720Z,324.00
2018-09-14T04:57:28.771Z,340.00
2018-09-14T04:58:28.714Z,360.00
2018-09-14T04:59:28.715Z,376.00
2018-09-14T05:00:28.712Z,392.00
2018-09-14T05:01:28.711Z,408.00
2018-09-14T05:02:28.707Z,424.00
2018-09-14T05:03:28.706Z,444.00
2018-09-14T05:04:28.702Z,456.00
2018-09-14T05:05:28.699Z,476.00
2018-09-14T05:06:28.695Z,508.00
2018-09-14T05:07:28.750Z,532.00
2018-09-14T05:08:28.693Z,560.00
2018-09-14T05:09:28.690Z,588.00
2018-09-14T05:10:28.688Z,624.00
2018-09-14T05:11:28.686Z,648.00
2018-09-14T05:12:28.685Z,684.00
2018-09-14T05:13:28.682Z,712.00
2018-09-14T05:14:28.681Z,732.00
2018-09-14T05:15:29.426Z,752.00
2018-09-14T05:16:28.675Z,784.00
2018-09-14T05:17:28.675Z,808.00
2018-09-14T05:18:28.673Z,832.00
2018-09-14T05:19:28.669Z,868.00
2018-09-14T05:20:28.667Z,952.00
2018-09-14T05:21:28.666Z,1032.00
2018-09-14T05:22:28.661Z,1088.00
2018-09-14T05:23:28.663Z,1148.00
2018-09-14T05:24:28.709Z,1172.00
2018-09-14T05:25:28.657Z,1180.00
2018-09-14T05:26:28.667Z,1200.00
2018-09-14T05:27:28.654Z,1252.00
2018-09-14T05:28:28.653Z,1292.00
2018-09-14T05:29:28.652Z,1324.00
2018-09-14T05:30:28.650Z,1340.00
2018-09-14T05:31:28.645Z,1360.00
2018-09-14T05:32:28.643Z,1372.00
2018-09-14T05:33:28.645Z,1368.00
2018-09-14T05:34:28.640Z,1360.00
2018-09-14T05:35:28.642Z,1344.00
2018-09-14T05:36:28.640Z,1328.00
2018-09-14T05:37:28.635Z,1336.00
2018-09-14T05:38:28.680Z,1372.00
2018-09-14T05:39:28.629Z,1432.00
2018-09-14T05:40:28.627Z,1492.00
2018-09-14T05:41:28.624Z,1560.00
2018-09-14T05:42:28.630Z,1608.00
2018-09-14T05:43:28.623Z,1640.00
2018-09-14T05:44:28.621Z,1696.00
2018-09-14T05:45:28.620Z,1768.00
2018-09-14T05:46:28.623Z,1868.00
2018-09-14T05:47:28.615Z,1904.00
2018-09-14T05:48:28.619Z,1924.00
2018-09-14T05:49:28.606Z,1932.00
2018-09-14T05:50:28.607Z,1924.00
2018-09-14T05:51:28.608Z,1948.00
2018-09-14T05:52:28.606Z,1976.00
2018-09-14T05:53:28.604Z,1992.00
2018-09-14T05:54:28.612Z,2024.00
2018-09-14T05:55:28.607Z,2144.00
2018-09-14T05:56:28.598Z,2288.00
2018-09-14T05:57:28.634Z,2372.00
2018-09-14T05:58:28.595Z,2552.00
2018-09-14T05:59:28.597Z,2812.00
2018-09-14T06:00:28.590Z,2976.00
2018-09-14T06:01:28.594Z,3048.00
2018-09-14T06:02:28.593Z,3116.00
2018-09-14T06:03:28.587Z,3152.00
2018-09-14T06:04:28.590Z,3188.00
2018-09-14T06:05:28.584Z,3320.00
2018-09-14T06:06:28.615Z,3540.00
2018-09-14T06:07:28.581Z,3792.00
2018-09-14T06:08:28.579Z,4040.00
2018-09-14T06:09:28.576Z,4172.00
2018-09-14T06:10:28.575Z,4160.00
2018-09-14T06:11:28.574Z,4100.00
2018-09-14T06:12:28.578Z,4036.00
2018-09-14T06:13:28.571Z,3952.00
2018-09-14T06:14:28.572Z,3932.00
2018-09-14T06:15:28.566Z,3872.00
2018-09-14T06:16:28.565Z,3744.00
2018-09-14T06:17:28.566Z,3668.00
2018-09-14T06:18:28.562Z,3552.00
2018-09-14T06:19:28.561Z,3460.00
2018-09-14T06:20:28.560Z,3404.00
2018-09-14T06:21:28.557Z,3400.00
2018-09-14T06:22:28.578Z,3384.00
2018-09-14T06:23:28.555Z,3376.00
2018-09-14T06:24:28.553Z,3344.00
2018-09-14T06:25:28.551Z,3332.00
2018-09-14T06:26:28.550Z,3372.00
2018-09-14T06:27:28.548Z,3364.00
2018-09-14T06:28:28.547Z,3364.00
2018-09-14T06:29:28.546Z,3428.00
2018-09-14T06:30:28.777Z,3516.00
2018-09-14T06:31:28.546Z,3608.00
2018-09-14T06:32:28.542Z,3668.00
2018-09-14T06:33:28.539Z,3712.00
2018-09-14T06:34:28.537Z,3780.00
2018-09-14T06:35:28.537Z,3800.00
2018-09-14T06:36:28.536Z,3796.00
2018-09-14T06:37:28.539Z,3876.00
2018-09-14T06:38:28.534Z,3932.00
2018-09-14T06:39:28.531Z,3948.00
2018-09-14T06:40:28.530Z,3928.00
2018-09-14T06:41:28.528Z,3908.00
2018-09-14T06:42:28.533Z,3868.00
2018-09-14T06:43:28.528Z,3864.00
2018-09-14T06:44:28.527Z,3904.00
2018-09-14T06:45:28.573Z,3948.00
2018-09-14T06:46:28.525Z,3924.00
2018-09-14T06:47:28.523Z,3880.00
2018-09-14T06:48:29.029Z,3836.00
2018-09-14T06:49:28.523Z,3808.00
2018-09-14T06:50:28.517Z,3816.00
2018-09-14T06:51:28.523Z,3892.00
2018-09-14T06:52:28.518Z,3960.00
2018-09-14T06:53:28.592Z,4032.00
2018-09-14T06:54:28.519Z,4068.00
2018-09-14T06:55:28.516Z,4084.00
2018-09-14T06:56:28.516Z,4084.00
2018-09-14T06:57:28.517Z,4068.00
2018-09-14T06:58:28.514Z,4060.00
2018-09-14T06:59:28.512Z,4040.00
2018-09-14T07:00:28.585Z,4020.00
2018-09-14T07:01:28.509Z,4036.00
2018-09-14T07:02:28.513Z,4076.00
2018-09-14T07:03:28.510Z,4120.00
2018-09-14T07:04:28.514Z,4192.00
2018-09-14T07:05:28.508Z,4256.00
2018-09-14T07:06:28.580Z,4308.00
2018-09-14T07:07:28.506Z,4388.00
2018-09-14T07:08:28.507Z,4508.00
2018-09-14T07:09:28.506Z,4628.00
2018-09-14T07:10:28.504Z,4740.00
2018-09-14T07:11:28.527Z,4812.00
2018-09-14T07:12:28.500Z,4876.00
2018-09-14T07:13:28.502Z,4912.00
2018-09-14T07:14:28.506Z,4948.00
2018-09-14T07:15:28.500Z,4976.00
2018-09-14T07:16:28.498Z,5024.00
2018-09-14T07:17:28.500Z,5104.00
2018-09-14T07:18:28.497Z,5192.00
2018-09-14T07:19:28.495Z,5344.00
2018-09-14T07:20:28.496Z,5524.00
2018-09-14T07:21:28.496Z,5620.00
2018-09-14T07:22:28.494Z,5668.00
2018-09-14T07:23:28.493Z,5684.00
2018-09-14T07:24:28.592Z,5732.00
2018-09-14T07:25:28.492Z,5792.00
2018-09-14T07:26:28.492Z,5896.00
2018-09-14T07:27:28.503Z,6004.00
2018-09-14T07:28:28.499Z,6072.00
2018-09-14T07:29:28.499Z,6104.00
2018-09-14T07:30:28.497Z,6128.00
2018-09-14T07:31:28.500Z,6196.00
2018-09-14T07:32:28.499Z,6340.00
2018-09-14T07:33:28.488Z,6652.00
2018-09-14T07:34:28.485Z,6856.00
2018-09-14T07:35:28.489Z,6900.00
2018-09-14T07:36:28.527Z,6872.00
2018-09-14T07:37:28.490Z,6784.00
2018-09-14T07:38:28.483Z,6708.00
2018-09-14T07:39:28.486Z,6708.00
2018-09-14T07:40:28.481Z,6760.00
2018-09-14T07:41:28.481Z,6784.00
2018-09-14T07:42:28.496Z,6900.00
2018-09-14T07:43:28.479Z,7052.00
2018-09-14T07:44:28.480Z,7236.00
2018-09-14T07:45:28.481Z,7420.00
2018-09-14T07:46:28.480Z,7604.00
2018-09-14T07:47:28.477Z,7744.00
2018-09-14T07:48:28.531Z,7852.00
2018-09-14T07:49:28.476Z,7916.00
2018-09-14T07:50:28.478Z,7928.00
2018-09-14T07:51:28.474Z,7892.00
2018-09-14T07:52:28.476Z,7864.00
2018-09-14T07:53:28.475Z,7912.00
2018-09-14T07:54:28.476Z,7956.00
2018-09-14T07:55:28.489Z,7940.00
2018-09-14T07:56:28.478Z,7948.00
2018-09-14T07:57:28.475Z,8020.00
2018-09-14T07:58:28.478Z,8080.00
2018-09-14T07:59:28.473Z,8160.00
2018-09-14T08:00:28.473Z,8216.00
2018-09-14T08:01:28.475Z,8328.00
2018-09-14T08:02:28.476Z,8356.00
2018-09-14T08:03:28.472Z,8328.00
2018-09-14T08:04:28.469Z,8340.00
2018-09-14T08:05:28.471Z,8376.00
2018-09-14T08:06:28.472Z,8480.00
2018-09-14T08:07:28.473Z,8460.00
2018-09-14T08:08:28.473Z,8340.00
2018-09-14T08:09:28.473Z,8168.00
2018-09-14T08:10:28.474Z,8132.00
2018-09-14T08:11:28.524Z,8192.00
2018-09-14T08:12:28.474Z,8320.00
2018-09-14T08:13:28.486Z,8428.00
2018-09-14T08:14:28.480Z,8448.00
2018-09-14T08:15:28.473Z,8432.00
2018-09-14T08:16:28.473Z,8460.00
2018-09-14T08:17:28.471Z,8532.00
2018-09-14T08:18:28.474Z,8604.00
2018-09-14T08:19:28.481Z,8708.00
2018-09-14T08:20:28.472Z,8692.00
2018-09-14T08:21:28.544Z,8656.00
2018-09-14T08:22:28.475Z,8548.00
2018-09-14T08:23:28.483Z,8544.00
2018-09-14T08:24:28.478Z,8728.00
2018-09-14T08:25:28.477Z,9088.00
2018-09-14T08:26:28.477Z,9492.00
2018-09-14T08:27:28.478Z,9688.00
2018-09-14T08:28:28.477Z,9660.00
2018-09-14T08:29:28.478Z,9456.00
2018-09-14T08:30:28.480Z,9248.00
2018-09-14T08:31:28.482Z,9180.00
2018-09-14T08:32:28.515Z,9224.00
2018-09-14T08:33:28.481Z,9316.00
2018-09-14T08:34:28.481Z,9248.00
2018-09-14T08:35:28.478Z,9116.00
2018-09-14T08:36:28.483Z,9040.00
2018-09-14T08:37:28.481Z,9036.00
2018-09-14T08:38:28.484Z,9116.00
2018-09-14T08:39:28.488Z,9264.00
2018-09-14T08:40:28.486Z,9308.00
2018-09-14T08:41:28.494Z,9192.00
2018-09-14T08:42:28.487Z,9068.00
2018-09-14T08:43:28.487Z,9016.00
2018-09-14T08:44:28.488Z,9028.00
2018-09-14T08:45:28.490Z,9036.00
2018-09-14T08:46:28.497Z,9040.00
2018-09-14T08:47:28.491Z,8920.00
2018-09-14T08:48:28.489Z,8676.00
2018-09-14T08:49:28.490Z,8396.00
2018-09-14T08:50:28.490Z,8180.00
2018-09-14T08:51:28.496Z,7860.00
2018-09-14T08:52:28.493Z,7528.00
2018-09-14T08:53:28.503Z,7116.00
2018-09-14T08:54:28.494Z,6740.00
2018-09-14T08:55:28.498Z,6448.00
2018-09-14T08:56:28.500Z,6216.00
2018-09-14T08:57:28.496Z,6252.00
2018-09-14T08:58:28.497Z,6132.00
2018-09-14T08:59:28.498Z,6008.00
2018-09-14T09:00:28.503Z,5836.00
2018-09-14T09:01:28.499Z,5840.00
2018-09-14T09:02:28.502Z,5888.00
2018-09-14T09:03:28.500Z,5860.00
2018-09-14T09:04:28.502Z,5952.00
2018-09-14T09:05:28.508Z,6420.00
2018-09-14T09:06:28.504Z,6880.00
2018-09-14T09:07:28.499Z,6840.00
2018-09-14T09:08:28.502Z,6780.00
2018-09-14T09:09:28.505Z,6908.00
2018-09-14T09:10:28.505Z,7392.00
2018-09-14T09:11:28.533Z,8060.00
2018-09-14T09:12:28.505Z,8652.00
2018-09-14T09:13:28.508Z,9100.00
2018-09-14T09:14:28.516Z,9452.00
2018-09-14T09:15:28.506Z,9584.00
2018-09-14T09:16:28.509Z,9616.00
2018-09-14T09:17:28.509Z,9420.00
2018-09-14T09:18:28.514Z,9288.00
2018-09-14T09:19:28.540Z,9236.00
2018-09-14T09:20:28.511Z,9120.00
2018-09-14T09:21:28.513Z,9016.00
2018-09-14T09:22:28.512Z,9100.00
2018-09-14T09:23:28.538Z,9260.00
2018-09-14T09:24:28.517Z,9040.00
2018-09-14T09:25:28.517Z,8688.00
2018-09-14T09:26:28.539Z,8492.00
2018-09-14T09:27:28.518Z,8568.00
2018-09-14T09:28:28.523Z,8872.00
2018-09-14T09:29:28.544Z,9476.00
2018-09-14T09:30:28.518Z,10004.00
2018-09-14T09:31:28.517Z,10192.00
2018-09-14T09:32:28.522Z,10064.00
2018-09-14T09:33:28.522Z,9872.00
2018-09-14T09:34:28.521Z,9712.00
2018-09-14T09:35:28.526Z,9748.00
2018-09-14T09:36:28.523Z,9804.00
2018-09-14T09:37:28.521Z,9716.00
2018-09-14T09:38:28.526Z,9748.00
2018-09-14T09:39:28.524Z,9808.00
2018-09-14T09:40:28.527Z,9640.00
2018-09-14T09:41:28.528Z,9428.00
2018-09-14T09:42:28.533Z,9432.00
2018-09-14T09:43:28.626Z,9636.00
2018-09-14T09:44:28.531Z,9892.00
2018-09-14T09:45:28.533Z,10012.00
2018-09-14T09:46:28.532Z,9924.00
2018-09-14T09:47:28.537Z,9772.00
2018-09-14T09:48:28.532Z,9736.00
2018-09-14T09:49:28.531Z,9744.00
2018-09-14T09:50:28.534Z,9760.00
2018-09-14T09:51:28.537Z,9816.00
2018-09-14T09:52:28.538Z,9816.00
2018-09-14T09:53:28.540Z,9736.00
2018-09-14T09:54:28.540Z,9540.00
2018-09-14T09:55:28.542Z,9368.00
2018-09-14T09:56:28.582Z,9288.00
2018-09-14T09:57:28.545Z,9340.00
2018-09-14T09:58:28.553Z,9332.00
2018-09-14T09:59:28.547Z,9276.00
2018-09-14T10:00:28.549Z,9232.00
2018-09-14T10:01:28.550Z,9292.00
2018-09-14T10:02:28.555Z,9284.00
2018-09-14T10:03:28.556Z,9196.00
2018-09-14T10:04:28.556Z,9148.00
2018-09-14T10:05:28.557Z,9136.00
2018-09-14T10:06:28.569Z,9220.00
2018-09-14T10:07:28.563Z,9304.00
2018-09-14T10:08:28.563Z,9328.00
2018-09-14T10:09:28.564Z,9324.00
2018-09-14T10:10:28.565Z,9400.00
2018-09-14T10:11:28.565Z,9452.00
2018-09-14T10:12:28.566Z,9376.00
2018-09-14T10:13:28.572Z,9244.00
2018-09-14T10:14:28.576Z,9024.00
2018-09-14T10:15:28.572Z,8812.00
2018-09-14T10:16:28.577Z,8780.00
2018-09-14T10:17:28.576Z,8620.00
2018-09-14T10:18:28.685Z,8420.00
2018-09-14T10:19:28.581Z,8224.00
2018-09-14T10:20:28.606Z,8188.00
2018-09-14T10:21:28.665Z,8132.00
2018-09-14T10:22:28.627Z,7940.00
2018-09-14T10:23:28.588Z,7772.00
2018-09-14T10:24:28.591Z,7668.00
2018-09-14T10:25:28.595Z,7764.00
2018-09-14T10:26:28.642Z,8072.00
2018-09-14T10:27:28.595Z,8296.00
2018-09-14T10:28:29.522Z,8324.00
2018-09-14T10:29:28.648Z,8240.00
2018-09-14T10:30:28.653Z,8212.00
2018-09-14T10:31:28.603Z,8364.00
2018-09-14T10:32:29.524Z,8408.00
2018-09-14T10:33:28.607Z,8392.00
2018-09-14T10:34:28.606Z,8228.00
2018-09-14T10:35:28.609Z,8148.00
2018-09-14T10:36:28.613Z,8184.00
2018-09-14T10:37:28.618Z,8364.00
2018-09-14T10:38:28.626Z,8684.00
2018-09-14T10:39:28.619Z,8880.00
2018-09-14T10:40:28.639Z,8904.00
2018-09-14T10:41:28.622Z,8804.00
2018-09-14T10:42:28.623Z,8592.00
2018-09-14T10:43:28.626Z,8488.00
2018-09-14T10:44:28.628Z,8460.00
2018-09-14T10:45:28.629Z,8476.00
2018-09-14T10:46:28.671Z,8588.00
2018-09-14T10:47:28.639Z,8700.00
2018-09-14T10:48:29.604Z,8804.00
2018-09-14T10:49:28.641Z,8856.00
2018-09-14T10:50:28.640Z,8988.00
2018-09-14T10:51:28.635Z,9044.00
2018-09-14T10:52:28.643Z,8916.00
2018-09-14T10:53:28.644Z,8796.00
2018-09-14T10:54:28.648Z,8920.00
2018-09-14T10:55:28.684Z,9160.00
2018-09-14T10:56:28.650Z,9160.00
2018-09-14T10:57:28.653Z,9068.00
2018-09-14T10:58:28.655Z,8840.00
2018-09-14T10:59:28.655Z,8780.00
2018-09-14T11:00:28.693Z,8728.00
2018-09-14T11:01:28.659Z,8616.00
2018-09-14T11:02:28.661Z,8300.00
2018-09-14T11:03:28.665Z,8104.00
2018-09-14T11:04:28.705Z,7880.00
2018-09-14T11:05:28.717Z,7552.00
2018-09-14T11:06:28.713Z,7264.00
2018-09-14T11:07:28.669Z,7008.00
2018-09-14T11:08:28.675Z,6824.00
2018-09-14T11:09:28.677Z,6752.00
2018-09-14T11:10:28.682Z,6680.00
2018-09-14T11:11:28.676Z,6680.00
2018-09-14T11:12:28.716Z,6780.00
2018-09-14T11:13:28.685Z,6884.00
2018-09-14T11:14:28.684Z,6996.00
2018-09-14T11:15:28.685Z,7124.00
2018-09-14T11:16:28.689Z,7260.00
2018-09-14T11:17:28.689Z,7176.00
2018-09-14T11:18:28.962Z,7108.00
2018-09-14T11:19:28.694Z,7172.00
2018-09-14T11:20:28.835Z,7256.00
2018-09-14T11:21:28.699Z,7308.00
2018-09-14T11:22:28.701Z,7540.00
2018-09-14T11:23:28.702Z,7744.00
2018-09-14T11:24:28.734Z,7828.00
2018-09-14T11:25:28.792Z,7940.00
2018-09-14T11:26:28.916Z,8120.00
2018-09-14T11:27:28.711Z,8204.00
2018-09-14T11:28:28.713Z,8180.00
2018-09-14T11:29:28.752Z,8176.00
2018-09-14T11:30:28.717Z,8040.00
2018-09-14T11:31:28.726Z,7752.00
2018-09-14T11:32:28.760Z,7376.00
2018-09-14T11:33:28.728Z,6908.00
2018-09-14T11:34:28.732Z,6468.00
2018-09-14T11:35:28.726Z,6144.00
2018-09-14T11:36:28.728Z,5864.00
2018-09-14T11:37:28.780Z,5684.00
2018-09-14T11:38:28.798Z,5572.00
2018-09-14T11:39:28.734Z,5552.00
2018-09-14T11:40:28.739Z,5548.00
2018-09-14T11:41:28.739Z,5576.00
2018-09-14T11:42:28.741Z,5732.00
2018-09-14T11:43:28.744Z,6104.00
2018-09-14T11:44:28.760Z,6580.00
2018-09-14T11:45:28.747Z,7048.00
2018-09-14T11:46:28.751Z,7348.00
2018-09-14T11:47:28.753Z,7488.00
2018-09-14T11:48:28.754Z,7740.00
2018-09-14T11:49:28.757Z,8056.00
2018-09-14T11:50:28.758Z,8300.00
2018-09-14T11:51:28.759Z,8388.00
2018-09-14T11:52:28.765Z,8396.00
2018-09-14T11:53:28.767Z,8264.00
2018-09-14T11:54:28.767Z,8068.00
2018-09-14T11:55:29.552Z,7976.00
2018-09-14T11:56:28.773Z,7852.00
2018-09-14T11:57:28.773Z,7844.00
2018-09-14T11:58:28.777Z,7812.00
2018-09-14T11:59:28.777Z,7732.00
2018-09-14T12:00:28.776Z,7612.00
2018-09-14T12:01:28.877Z,7540.00
2018-09-14T12:02:28.787Z,7496.00
2018-09-14T12:03:28.786Z,7444.00
2018-09-14T12:04:28.788Z,7440.00
2018-09-14T12:05:28.792Z,7576.00
2018-09-14T12:06:28.795Z,7684.00
2018-09-14T12:07:28.795Z,7800.00
2018-09-14T12:08:28.799Z,7928.00
2018-09-14T12:09:28.800Z,8040.00
2018-09-14T12:10:28.828Z,8132.00
2018-09-14T12:11:28.806Z,8232.00
2018-09-14T12:12:28.808Z,8272.00
2018-09-14T12:13:28.816Z,8320.00
2018-09-14T12:14:28.812Z,8376.00
2018-09-14T12:15:28.816Z,8444.00
2018-09-14T12:16:28.820Z,8436.00
2018-09-14T12:17:28.819Z,8416.00
2018-09-14T12:18:28.823Z,8352.00
2018-09-14T12:19:29.557Z,8236.00
2018-09-14T12:20:28.829Z,8208.00
2018-09-14T12:21:28.831Z,8200.00
2018-09-14T12:22:28.836Z,8232.00
2018-09-14T12:23:28.836Z,8268.00
2018-09-14T12:24:28.840Z,8308.00
2018-09-14T12:25:28.842Z,8332.00
2018-09-14T12:26:28.844Z,8296.00
2018-09-14T12:27:28.842Z,8116.00
2018-09-14T12:28:28.908Z,7924.00
2018-09-14T12:29:28.856Z,7784.00
2018-09-14T12:30:28.856Z,7612.00
2018-09-14T12:31:28.860Z,7612.00